Parkwood, Washington
Current Conditions -  °F | °C
As of 5:55 PM on Monday 24 Nov 2014 (Local Time) from KPWT Reporting Station
Overcast Overcast  
Wind Chill: 41°   Ceiling: 500
Heat Index: 46°   Visibility: 5mi
Dew Point: 46°   Wind: 12mph
Humidity: 100%   Direction: 180°S
Pressure: 30.16"   Gusts: 17mph
Location:  47.5378°N, 122.589°W
Report Text: KPWT 250155Z AUTO 18010G15KT 5SM BKN005 BKN013 OVC019 08/08 A3016 RMK AO1
Loading
Personal Weather Stations






























Interactive Weather Map New forecast layout! Learn more

10-Day Weather Forecast

Advertisements
Track Severe Weather on mobile